Time;durP1;ratioP1;P1;durP2;ratioP2;P2;SDS_P1;SDS_P2;PMS_P1;PMS_P2;Temp;Humidity;BMP_temperature;BMP_pressure;BME280_temperature;BME280_humidity;BME280_pressure;Samples;Min_cycle;Max_cycle;Signal;HPM_P1;HPM_P2
2022/08/09 00:01:31;;;;;;;3.65;2.42;;;21.60;31.20;;;;;;5015720;28;20419;-40
2022/08/09 00:03:57;;;;;;;2.87;2.50;;;21.60;31.20;;;;;;5016096;28;20203;-42
2022/08/09 00:06:23;;;;;;;8.13;2.60;;;21.60;31.20;;;;;;5015486;28;20909;-41
2022/08/09 00:08:49;;;;;;;4.17;2.47;;;21.50;31.20;;;;;;5016168;28;20501;-40
2022/08/09 00:11:16;;;;;;;3.03;2.20;;;21.60;31.20;;;;;;5015858;28;20404;-41
2022/08/09 00:13:42;;;;;;;5.83;2.50;;;21.50;31.40;;;;;;5015698;28;20496;-39
2022/08/09 00:16:08;;;;;;;2.77;1.93;;;21.50;31.40;;;;;;5015730;28;20402;-40
2022/08/09 00:18:34;;;;;;;3.40;2.70;;;21.50;31.50;;;;;;5015743;28;20451;-41
2022/08/09 00:21:03;;;;;;;4.70;2.90;;;21.50;31.60;;;;;;5015504;28;20194;-41
2022/08/09 00:23:29;;;;;;;4.00;2.55;;;21.40;31.50;;;;;;5015972;28;20405;-41
2022/08/09 00:25:55;;;;;;;3.10;2.60;;;21.40;31.80;;;;;;5015416;28;20229;-40
2022/08/09 00:28:22;;;;;;;4.13;2.30;;;21.40;31.90;;;;;;5015214;28;20468;-41
2022/08/09 00:30:49;;;;;;;3.50;2.70;;;21.30;31.90;;;;;;5016350;28;20611;-41
2022/08/09 00:33:15;;;;;;;2.92;2.00;;;21.30;31.80;;;;;;5015378;28;20412;-39
2022/08/09 00:35:41;;;;;;;2.47;2.08;;;21.30;32.40;;;;;;5015494;28;20261;-40
2022/08/09 00:38:11;;;;;;;5.10;2.58;;;21.30;31.90;;;;;;5015381;28;20241;-40
2022/08/09 00:40:38;;;;;;;3.58;2.70;;;21.20;31.90;;;;;;5015159;28;20210;-40
2022/08/09 00:43:04;;;;;;;3.90;3.45;;;21.20;32.10;;;;;;5015683;28;20225;-41
2022/08/09 00:45:30;;;;;;;3.67;2.70;;;21.20;32.00;;;;;;5015876;28;20187;-41
2022/08/09 00:47:56;;;;;;;4.38;2.35;;;21.10;32.30;;;;;;5015583;28;20182;-40
2022/08/09 00:50:24;;;;;;;7.03;2.57;;;21.10;32.30;;;;;;5015079;28;20175;-40
2022/08/09 00:52:53;;;;;;;3.08;2.30;;;21.00;32.40;;;;;;5014180;28;20410;-40
2022/08/09 00:55:19;;;;;;;2.90;1.73;;;21.00;32.20;;;;;;5015013;28;20171;-41
2022/08/09 00:57:45;;;;;;;6.67;2.30;;;21.00;32.30;;;;;;5014652;28;20244;-41
2022/08/09 01:00:12;;;;;;;4.10;2.47;;;21.00;32.30;;;;;;5014908;28;20226;-40
2022/08/09 01:02:52;;;;;;;3.47;2.45;;;20.90;32.30;;;;;;5015289;28;20694;-41
2022/08/09 01:05:30;;;;;;;25.10;2.80;;;20.90;32.20;;;;;;5016071;28;20197;-41
2022/08/09 01:08:25;;;;;;;2.88;2.17;;;20.90;32.30;;;;;;5014838;28;20272;-41
2022/08/09 01:11:02;;;;;;;2.60;2.13;;;20.90;32.80;;;;;;5012743;28;20538;-40
2022/08/09 01:13:50;;;;;;;3.85;2.75;;;20.80;32.80;;;;;;5014735;28;20649;-41
2022/08/09 01:16:22;;;;;;;3.25;2.10;;;20.70;33.00;;;;;;5014184;28;20297;-41
2022/08/09 01:18:50;;;;;;;3.58;2.45;;;20.60;33.20;;;;;;4997142;28;20155;-40
2022/08/09 01:21:43;;;;;;;3.35;2.15;;;20.60;33.20;;;;;;5014899;28;20221;-40
2022/08/09 01:24:35;;;;;;;4.13;2.22;;;20.60;33.30;;;;;;5017086;28;20162;-40
2022/08/09 01:27:10;;;;;;;3.92;2.53;;;20.50;33.30;;;;;;5013897;28;20662;-40
2022/08/09 01:29:57;;;;;;;6.28;3.00;;;20.40;33.20;;;;;;5017389;28;20173;-41
2022/08/09 01:32:31;;;;;;;5.47;2.60;;;20.40;33.30;;;;;;5014576;28;20170;-41
2022/08/09 01:35:00;;;;;;;5.82;2.15;;;20.40;33.00;;;;;;5016806;28;20178;-40
2022/08/09 01:37:27;;;;;;;3.47;2.28;;;20.40;32.90;;;;;;5014047;28;20221;-40
2022/08/09 01:39:55;;;;;;;4.75;3.10;;;20.50;33.00;;;;;;5014428;28;20199;-40
2022/08/09 01:42:22;;;;;;;4.20;2.30;;;20.40;33.00;;;;;;5015533;28;20233;-40
2022/08/09 01:44:50;;;;;;;3.10;2.33;;;20.40;33.10;;;;;;5014453;28;20163;-40
2022/08/09 01:47:17;;;;;;;2.92;2.35;;;20.40;33.70;;;;;;5014185;28;20218;-41
2022/08/09 01:49:46;;;;;;;6.60;4.43;;;20.40;33.20;;;;;;5014886;28;20181;-40
2022/08/09 01:52:16;;;;;;;3.60;2.67;;;20.30;33.20;;;;;;5013863;28;20253;-40
2022/08/09 01:54:47;;;;;;;3.72;2.60;;;20.30;33.30;;;;;;5013908;28;20159;-40
2022/08/09 01:57:50;;;;;;;5.35;3.10;;;20.20;33.10;;;;;;5013914;28;20210;-42
2022/08/09 02:00:16;;;;;;;3.85;2.80;;;20.20;33.50;;;;;;4915395;29;20201;-42
2022/08/09 02:02:49;;;;;;;3.20;2.45;;;20.10;33.20;;;;;;4914985;29;20174;-40
2022/08/09 02:05:19;;;;;;;3.92;3.15;;;20.10;33.30;;;;;;4915545;29;20182;-40
2022/08/09 02:07:59;;;;;;;3.33;2.50;;;20.10;33.30;;;;;;4915117;29;20201;-41
2022/08/09 02:10:30;;;;;;;3.70;2.42;;;20.10;33.50;;;;;;4915446;29;20188;-42
2022/08/09 02:13:00;;;;;;;3.67;2.60;;;20.00;33.50;;;;;;4914857;29;20210;-40
2022/08/09 02:15:27;;;;;;;5.00;2.70;;;20.00;33.60;;;;;;4914914;29;20182;-40
2022/08/09 02:17:55;;;;;;;4.68;3.10;;;19.90;33.50;;;;;;4914511;29;20221;-40
2022/08/09 02:20:20;;;;;;;4.82;3.50;;;19.90;33.70;;;;;;4915042;29;20325;-41
2022/08/09 02:23:04;;;;;;;3.20;2.30;;;19.90;33.60;;;;;;4914947;29;20535;-41
2022/08/09 02:25:33;;;;;;;3.30;2.67;;;19.90;33.70;;;;;;4914763;29;20402;-41
2022/08/09 02:28:13;;;;;;;3.70;2.42;;;19.80;33.70;;;;;;4914572;29;20651;-41
2022/08/09 02:30:46;;;;;;;3.83;2.72;;;19.80;33.70;;;;;;4914569;29;20362;-40
2022/08/09 02:33:18;;;;;;;3.28;2.70;;;19.70;33.90;;;;;;4922564;28;20224;-40
2022/08/09 02:35:46;;;;;;;3.28;2.60;;;19.70;34.00;;;;;;5013052;28;20779;-40
2022/08/09 02:38:18;;;;;;;4.65;2.65;;;19.70;34.00;;;;;;5013324;28;20202;-41
2022/08/09 02:40:45;;;;;;;3.53;2.47;;;19.70;34.20;;;;;;5013010;28;20587;-41
2022/08/09 02:43:12;;;;;;;3.40;2.95;;;19.60;34.20;;;;;;5012959;28;20202;-39
2022/08/09 02:45:42;;;;;;;3.67;2.55;;;19.60;34.10;;;;;;5012822;28;20252;-40
2022/08/09 02:48:10;;;;;;;4.22;2.85;;;19.60;34.20;;;;;;5013006;28;20190;-40
2022/08/09 02:50:41;;;;;;;5.65;3.30;;;19.50;34.20;;;;;;5012936;28;20225;-40
2022/08/09 02:53:28;;;;;;;3.03;2.65;;;19.50;34.20;;;;;;5013245;28;20171;-40
2022/08/09 02:55:57;;;;;;;4.40;3.42;;;19.50;34.20;;;;;;5013028;28;20170;-40
2022/08/09 02:58:25;;;;;;;10.90;3.33;;;19.50;34.40;;;;;;5012567;28;20198;-40
2022/08/09 03:00:53;;;;;;;3.75;2.58;;;19.50;34.50;;;;;;5013008;28;20206;-40
2022/08/09 03:03:20;;;;;;;3.97;2.25;;;19.40;34.50;;;;;;5012734;28;20261;-41
2022/08/09 03:05:49;;;;;;;5.82;3.03;;;19.30;34.60;;;;;;5012509;28;20171;-41
2022/08/09 03:08:16;;;;;;;4.18;3.45;;;19.30;34.80;;;;;;5012471;28;20192;-41
2022/08/09 03:10:45;;;;;;;5.70;3.40;;;19.20;34.80;;;;;;5012475;28;20166;-41
2022/08/09 03:13:13;;;;;;;3.65;2.60;;;19.20;34.70;;;;;;5012458;28;20183;-40
2022/08/09 03:15:40;;;;;;;4.95;3.15;;;19.20;34.80;;;;;;5011905;28;20528;-40
2022/08/09 03:18:07;;;;;;;5.10;3.63;;;19.20;34.80;;;;;;5012250;28;20217;-40
2022/08/09 03:20:33;;;;;;;4.45;2.80;;;19.10;35.00;;;;;;5012295;28;20282;-39
2022/08/09 03:22:59;;;;;;;5.00;2.88;;;19.20;34.80;;;;;;5012583;28;20177;-40
2022/08/09 03:25:27;;;;;;;4.07;3.20;;;19.10;34.80;;;;;;5012295;28;20162;-41
2022/08/09 03:27:54;;;;;;;3.55;3.13;;;19.10;34.80;;;;;;5012129;28;20205;-41
2022/08/09 03:30:20;;;;;;;3.83;2.90;;;19.10;35.10;;;;;;5012404;28;20167;-40
2022/08/09 03:32:46;;;;;;;2.70;2.30;;;19.10;35.00;;;;;;5012315;28;20190;-40
2022/08/09 03:35:12;;;;;;;4.22;3.38;;;19.10;35.00;;;;;;5012282;28;20296;-40
2022/08/09 03:37:41;;;;;;;7.03;3.30;;;19.10;35.10;;;;;;5012191;28;20734;-40
2022/08/09 03:40:08;;;;;;;3.47;2.90;;;19.10;35.10;;;;;;5012045;28;20460;-40
2022/08/09 03:42:34;;;;;;;7.22;2.85;;;19.00;35.30;;;;;;5012143;28;20265;-39
2022/08/09 03:45:00;;;;;;;3.15;2.35;;;19.00;35.60;;;;;;5012255;28;20178;-39
2022/08/09 03:47:25;;;;;;;3.90;2.70;;;18.90;35.60;;;;;;5012295;28;20194;-40
2022/08/09 03:49:52;;;;;;;3.73;3.00;;;18.90;35.60;;;;;;5012435;28;20905;-40
2022/08/09 03:52:47;;;;;;;4.55;3.28;;;18.90;35.90;;;;;;5012325;28;20167;-40
2022/08/09 03:55:14;;;;;;;7.35;3.55;;;18.80;36.30;;;;;;5012138;28;20167;-40
2022/08/09 03:57:41;;;;;;;10.50;4.03;;;18.80;35.60;;;;;;5011842;28;20286;-40
2022/08/09 04:00:07;;;;;;;5.40;3.65;;;18.80;35.80;;;;;;5011946;28;20194;-40
2022/08/09 04:02:33;;;;;;;4.05;2.45;;;18.80;35.60;;;;;;5011979;28;20186;-41
2022/08/09 04:05:01;;;;;;;4.57;3.10;;;18.80;35.70;;;;;;5011883;28;20246;-40
2022/08/09 04:07:28;;;;;;;7.65;3.55;;;18.80;35.60;;;;;;5011677;28;20197;-42
2022/08/09 04:09:54;;;;;;;6.32;3.58;;;18.80;35.60;;;;;;5011809;28;20171;-41
2022/08/09 04:12:41;;;;;;;7.53;3.43;;;18.80;35.50;;;;;;5011860;28;20240;-41
2022/08/09 04:15:08;;;;;;;5.90;3.67;;;18.90;35.60;;;;;;5011842;28;20412;-41
2022/08/09 04:17:33;;;;;;;7.15;4.10;;;18.90;35.60;;;;;;5011339;28;20289;-41
2022/08/09 04:19:59;;;;;;;12.23;3.57;;;18.90;35.60;;;;;;5011751;28;20282;-42
2022/08/09 04:22:25;;;;;;;9.63;4.23;;;18.90;35.80;;;;;;5011815;28;20178;-39
2022/08/09 04:24:51;;;;;;;5.20;3.30;;;18.90;35.80;;;;;;5011734;28;20214;-40
2022/08/09 04:27:17;;;;;;;9.40;4.90;;;18.90;36.00;;;;;;5011899;28;20191;-40
2022/08/09 04:29:43;;;;;;;10.23;4.07;;;18.90;36.00;;;;;;5015325;28;20183;-40
2022/08/09 04:32:08;;;;;;;3.53;3.00;;;18.90;36.00;;;;;;5015186;28;20190;-40
2022/08/09 04:34:34;;;;;;;8.37;4.57;;;19.00;36.00;;;;;;5015743;28;20412;-40
2022/08/09 04:37:00;;;;;;;4.20;3.20;;;19.00;35.90;;;;;;5014972;28;20199;-41
2022/08/09 04:39:27;;;;;;;4.95;2.95;;;19.10;36.20;;;;;;5015103;28;20267;-39
2022/08/09 04:41:53;;;;;;;6.18;3.42;;;19.10;36.20;;;;;;5015323;28;20212;-40
2022/08/09 04:44:19;;;;;;;6.43;3.72;;;19.20;36.10;;;;;;5015046;28;20166;-40
2022/08/09 04:46:44;;;;;;;3.90;2.53;;;19.20;36.20;;;;;;5014603;28;20248;-40
2022/08/09 04:49:10;;;;;;;4.33;3.43;;;19.20;36.30;;;;;;5014970;28;20177;-40
2022/08/09 04:51:36;;;;;;;5.30;3.90;;;19.30;36.30;;;;;;5014882;28;20531;-41
2022/08/09 04:54:02;;;;;;;6.40;3.53;;;19.30;36.30;;;;;;5014844;28;20405;-41
2022/08/09 04:56:29;;;;;;;5.77;2.73;;;19.30;36.20;;;;;;5014709;28;20322;-40
2022/08/09 04:58:55;;;;;;;6.72;3.50;;;19.40;36.20;;;;;;5014862;28;20943;-41
2022/08/09 05:01:21;;;;;;;6.90;3.25;;;19.40;36.30;;;;;;5014772;28;20218;-40
2022/08/09 05:03:47;;;;;;;3.60;2.40;;;19.40;36.30;;;;;;5014816;28;20189;-41
2022/08/09 05:06:14;;;;;;;5.70;3.80;;;19.50;36.30;;;;;;5014801;28;20162;-41
2022/08/09 05:08:40;;;;;;;5.13;3.30;;;19.50;36.30;;;;;;5014937;28;20194;-40
2022/08/09 05:11:06;;;;;;;4.70;3.40;;;19.50;36.50;;;;;;5014766;28;20175;-41
2022/08/09 05:13:33;;;;;;;6.18;3.65;;;19.60;36.50;;;;;;5014654;28;20424;-41
2022/08/09 05:15:59;;;;;;;3.13;2.45;;;19.60;36.50;;;;;;5014275;28;20181;-40
2022/08/09 05:18:28;;;;;;;10.52;4.10;;;19.60;36.50;;;;;;5014522;28;20329;-39
2022/08/09 05:20:55;;;;;;;12.32;3.00;;;19.70;36.50;;;;;;5014281;28;20197;-40
2022/08/09 05:23:22;;;;;;;4.85;3.60;;;19.80;36.40;;;;;;5014587;28;20198;-41
2022/08/09 05:25:48;;;;;;;4.80;3.40;;;19.80;36.30;;;;;;5014094;28;20237;-41
2022/08/09 05:28:13;;;;;;;3.57;2.87;;;19.90;36.20;;;;;;5014136;28;20183;-41
2022/08/09 05:30:39;;;;;;;5.30;3.07;;;20.00;36.00;;;;;;5014133;28;20412;-41
2022/08/09 05:33:05;;;;;;;4.23;3.83;;;20.10;36.10;;;;;;5014217;28;20582;-41
2022/08/09 05:35:31;;;;;;;6.20;3.50;;;20.20;36.00;;;;;;5013935;28;20676;-42
2022/08/09 05:37:56;;;;;;;4.60;3.60;;;20.40;35.90;;;;;;5013664;28;20548;-40
2022/08/09 05:40:24;;;;;;;8.90;3.80;;;20.40;35.80;;;;;;5013981;28;20230;-40
2022/08/09 05:42:50;;;;;;;4.75;3.15;;;20.50;35.70;;;;;;5013885;28;20174;-42
2022/08/09 05:45:16;;;;;;;7.03;4.20;;;20.60;35.60;;;;;;5013959;28;20535;-40
2022/08/09 05:47:42;;;;;;;3.77;2.83;;;20.70;35.60;;;;;;5013903;28;20191;-40
2022/08/09 05:50:08;;;;;;;3.70;2.73;;;20.80;35.60;;;;;;5013941;28;20675;-41
2022/08/09 05:52:34;;;;;;;3.13;2.73;;;21.00;35.40;;;;;;5013765;28;20169;-40
2022/08/09 05:55:01;;;;;;;3.17;2.45;;;21.00;35.20;;;;;;5013766;28;20453;-41
2022/08/09 05:57:26;;;;;;;6.35;3.72;;;21.10;35.00;;;;;;5013414;28;20679;-40
2022/08/09 05:59:52;;;;;;;4.70;2.93;;;21.20;34.90;;;;;;5013525;28;20260;-42
2022/08/09 06:02:18;;;;;;;3.53;2.83;;;21.30;34.90;;;;;;5013620;28;20255;-41
2022/08/09 06:04:44;;;;;;;3.73;2.87;;;21.40;34.80;;;;;;5013635;28;20166;-40
2022/08/09 06:07:09;;;;;;;4.50;3.17;;;21.50;34.50;;;;;;5013120;28;20651;-41
2022/08/09 06:09:36;;;;;;;3.97;3.23;;;21.60;34.50;;;;;;5013402;28;20405;-41
2022/08/09 06:12:02;;;;;;;3.72;3.13;;;21.70;34.40;;;;;;5013469;28;20202;-41
2022/08/09 06:14:28;;;;;;;5.45;3.10;;;21.80;34.10;;;;;;5013539;28;20194;-41
2022/08/09 06:16:54;;;;;;;5.60;3.80;;;21.80;34.00;;;;;;5013041;28;20206;-40
2022/08/09 06:19:20;;;;;;;5.00;3.73;;;22.00;34.20;;;;;;5013375;28;20284;-41
2022/08/09 06:21:46;;;;;;;4.30;2.90;;;22.00;34.20;;;;;;5013415;28;20406;-40
2022/08/09 06:24:13;;;;;;;5.78;3.65;;;22.10;34.20;;;;;;5013131;28;20170;-41
2022/08/09 06:26:40;;;;;;;4.07;3.38;;;22.10;34.10;;;;;;5013040;28;20198;-42
2022/08/09 06:29:08;;;;;;;8.40;3.63;;;22.10;34.00;;;;;;5013107;28;20162;-41
2022/08/09 06:31:35;;;;;;;7.32;3.83;;;22.20;33.90;;;;;;5013071;28;20175;-41
2022/08/09 06:34:02;;;;;;;4.95;3.67;;;22.30;34.20;;;;;;5013074;28;20232;-41
2022/08/09 06:36:28;;;;;;;3.97;3.53;;;22.40;34.40;;;;;;5012703;28;20176;-40
2022/08/09 06:38:54;;;;;;;6.23;3.87;;;22.50;34.50;;;;;;5013203;28;20236;-41
2022/08/09 06:41:20;;;;;;;5.33;3.20;;;22.60;34.40;;;;;;5012667;28;20206;-40
2022/08/09 06:43:46;;;;;;;7.22;3.90;;;22.70;34.40;;;;;;5012912;28;20429;-40
2022/08/09 06:46:13;;;;;;;4.45;3.03;;;22.90;34.30;;;;;;5012608;28;20171;-41
2022/08/09 06:48:41;;;;;;;5.75;3.38;;;23.00;34.20;;;;;;5012705;28;20658;-42
2022/08/09 06:51:07;;;;;;;2.90;2.40;;;23.10;33.90;;;;;;5012143;28;20642;-41
2022/08/09 06:53:34;;;;;;;9.05;3.28;;;23.30;34.60;;;;;;5012754;28;20174;-41
2022/08/09 06:56:01;;;;;;;3.65;2.90;;;23.40;34.10;;;;;;5012436;28;20170;-41
2022/08/09 06:58:30;;;;;;;4.67;3.43;;;23.60;34.00;;;;;;5012556;28;20195;-41
2022/08/09 07:00:56;;;;;;;10.40;2.80;;;23.70;33.20;;;;;;5012605;28;20453;-40
2022/08/09 07:03:23;;;;;;;6.13;3.57;;;23.70;33.00;;;;;;5012539;28;20401;-40
2022/08/09 07:05:49;;;;;;;4.90;2.70;;;23.90;33.40;;;;;;5012301;28;20177;-42
2022/08/09 07:08:15;;;;;;;6.70;3.27;;;24.00;33.40;;;;;;5012431;28;20429;-41
2022/08/09 07:10:42;;;;;;;4.67;3.77;;;24.10;34.00;;;;;;5012360;28;20917;-41
2022/08/09 07:13:08;;;;;;;6.17;2.77;;;24.20;33.30;;;;;;5012480;28;20421;-42
2022/08/09 07:15:34;;;;;;;7.63;2.97;;;24.40;33.30;;;;;;5012194;28;20409;-41
2022/08/09 07:18:00;;;;;;;3.70;2.50;;;24.50;32.60;;;;;;5012163;28;20467;-41
2022/08/09 07:20:25;;;;;;;4.00;2.80;;;24.50;32.50;;;;;;5012275;28;20485;-41
2022/08/09 07:22:52;;;;;;;4.73;2.40;;;24.60;32.50;;;;;;5012506;28;20174;-42
2022/08/09 07:25:18;;;;;;;4.33;3.00;;;24.70;32.30;;;;;;5012443;28;20170;-40
2022/08/09 07:27:43;;;;;;;2.90;2.30;;;24.70;32.00;;;;;;5011993;28;20428;-41
2022/08/09 07:30:12;;;;;;;4.00;3.10;;;24.80;32.10;;;;;;5012448;28;20200;-42
2022/08/09 07:32:39;;;;;;;4.70;3.40;;;24.90;32.10;;;;;;5012211;28;20964;-41
2022/08/09 07:35:08;;;;;;;5.90;2.70;;;25.00;31.20;;;;;;5012111;28;20416;-40
2022/08/09 07:37:34;;;;;;;3.50;2.83;;;25.10;31.30;;;;;;5012116;28;20433;-40
2022/08/09 07:40:00;;;;;;;6.77;2.90;;;25.20;31.30;;;;;;5012035;28;20592;-40
2022/08/09 07:42:25;;;;;;;3.33;3.00;;;25.30;31.50;;;;;;5012217;28;20488;-41
2022/08/09 07:44:51;;;;;;;4.53;2.80;;;25.40;31.40;;;;;;5012122;28;20174;-40
2022/08/09 07:47:18;;;;;;;3.00;2.33;;;25.50;31.10;;;;;;5011859;28;20186;-41
2022/08/09 07:49:44;;;;;;;3.57;2.70;;;25.60;30.60;;;;;;5012154;28;20198;-43
2022/08/09 07:52:10;;;;;;;3.30;2.33;;;25.80;31.30;;;;;;5012030;28;20428;-41
2022/08/09 07:54:37;;;;;;;3.77;2.00;;;25.90;31.40;;;;;;5011937;28;20913;-41
2022/08/09 07:57:03;;;;;;;3.23;2.10;;;26.00;31.60;;;;;;5011881;28;20499;-41
2022/08/09 07:59:29;;;;;;;3.23;1.93;;;26.20;31.40;;;;;;5011948;28;20460;-40
2022/08/09 08:01:55;;;;;;;2.90;2.10;;;26.30;31.10;;;;;;5013455;28;20406;-41
2022/08/09 08:04:23;;;;;;;3.50;2.50;;;26.50;30.70;;;;;;5016061;28;20413;-41
2022/08/09 08:06:49;;;;;;;3.17;2.20;;;26.60;30.60;;;;;;5015396;28;20445;-40
2022/08/09 08:09:16;;;;;;;2.97;2.43;;;26.70;31.00;;;;;;5016053;28;20440;-41
2022/08/09 08:11:42;;;;;;;2.80;2.20;;;26.90;30.50;;;;;;5015847;28;20170;-42
2022/08/09 08:14:08;;;;;;;3.43;2.13;;;27.10;30.60;;;;;;5015662;28;20408;-41
2022/08/09 08:16:35;;;;;;;3.10;2.27;;;27.20;30.00;;;;;;5015200;28;20480;-41
2022/08/09 08:19:01;;;;;;;4.03;1.87;;;27.30;30.00;;;;;;5015422;28;20378;-40
2022/08/09 08:21:26;;;;;;;2.97;1.77;;;27.40;28.10;;;;;;5015466;28;20555;-41
2022/08/09 08:23:53;;;;;;;3.23;1.87;;;27.50;28.00;;;;;;5015654;28;20988;-40
2022/08/09 08:26:18;;;;;;;2.80;1.53;;;27.60;26.20;;;;;;5015805;28;20206;-41
2022/08/09 08:28:44;;;;;;;2.50;1.57;;;27.60;26.70;;;;;;5015325;28;20536;-41
2022/08/09 08:31:10;;;;;;;2.40;1.73;;;27.70;24.10;;;;;;5016201;28;20202;-42
2022/08/09 08:33:36;;;;;;;3.27;1.57;;;27.70;24.60;;;;;;5016470;28;20171;-41
2022/08/09 08:36:02;;;;;;;2.40;1.50;;;27.70;25.80;;;;;;5015284;28;20457;-41
2022/08/09 08:38:28;;;;;;;3.90;1.30;;;27.90;27.20;;;;;;5015131;28;20194;-40
2022/08/09 08:40:56;;;;;;;5.67;2.20;;;28.00;26.30;;;;;;5015127;28;20445;-40
2022/08/09 08:43:22;;;;;;;2.30;1.47;;;28.20;26.00;;;;;;5015163;28;20410;-41
2022/08/09 08:45:51;;;;;;;2.63;1.50;;;28.20;24.40;;;;;;5014885;28;20413;-40
2022/08/09 08:48:17;;;;;;;3.50;1.70;;;28.30;24.80;;;;;;5014800;28;20914;-41
2022/08/09 08:50:46;;;;;;;3.10;1.20;;;28.40;24.40;;;;;;5015047;28;20492;-41
2022/08/09 08:53:13;;;;;;;5.60;2.00;;;28.50;24.30;;;;;;5015210;28;20905;-40
2022/08/09 08:55:41;;;;;;;3.00;1.20;;;28.60;25.10;;;;;;5014585;28;20983;-41
2022/08/09 08:58:08;;;;;;;3.00;1.87;;;28.80;25.30;;;;;;5014813;28;20575;-41
2022/08/09 09:00:34;;;;;;;2.90;1.90;;;28.90;24.90;;;;;;5014734;28;20451;-41
2022/08/09 09:03:01;;;;;;;2.97;1.90;;;29.00;25.20;;;;;;5014704;28;20406;-41
2022/08/09 09:05:28;;;;;;;4.97;1.80;;;29.10;25.10;;;;;;5015294;28;20425;-40
2022/08/09 09:07:54;;;;;;;3.37;1.63;;;29.20;24.10;;;;;;5015454;28;20488;-40
2022/08/09 09:10:23;;;;;;;3.40;1.70;;;29.30;23.20;;;;;;5014819;28;20429;-41
2022/08/09 09:12:50;;;;;;;2.70;1.10;;;29.30;23.90;;;;;;5014719;28;20917;-40
2022/08/09 09:15:15;;;;;;;2.97;2.03;;;29.40;24.30;;;;;;5014203;28;20909;-41
2022/08/09 09:17:41;;;;;;;3.40;1.80;;;29.50;24.40;;;;;;5015380;28;20453;-42
2022/08/09 09:20:13;;;;;;;2.30;1.43;;;29.60;24.30;;;;;;5015009;28;20201;-41
2022/08/09 09:22:52;;;;;;;2.37;1.73;;;29.70;24.00;;;;;;5016035;28;20409;-41
2022/08/09 09:25:42;;;;;;;3.00;1.70;;;29.80;23.90;;;;;;5014284;28;20412;-41
2022/08/09 09:28:10;;;;;;;2.30;1.30;;;29.80;23.50;;;;;;5014949;28;20513;-42
2022/08/09 09:30:56;;;;;;;2.53;1.70;;;29.70;23.10;;;;;;5016680;28;20406;-42
2022/08/09 09:33:35;;;;;;;2.77;1.63;;;29.90;22.40;;;;;;5016484;28;20920;-41
2022/08/09 09:36:08;;;;;;;3.30;1.80;;;30.00;23.40;;;;;;5016544;28;20749;-41
2022/08/09 09:38:43;;;;;;;3.83;2.20;;;30.10;23.60;;;;;;5016571;28;20436;-41
2022/08/09 09:41:09;;;;;;;2.17;1.20;;;30.10;22.70;;;;;;5014598;28;20461;-42
2022/08/09 09:43:35;;;;;;;2.53;1.47;;;29.90;22.40;;;;;;5013922;28;20493;-41
2022/08/09 09:46:01;;;;;;;2.70;1.60;;;29.80;22.30;;;;;;5015404;28;20406;-41
2022/08/09 09:48:28;;;;;;;2.37;1.37;;;29.70;22.10;;;;;;5017172;28;20524;-41
2022/08/09 09:50:55;;;;;;;4.57;1.47;;;29.60;22.40;;;;;;5016634;28;20174;-41
2022/08/09 09:53:23;;;;;;;2.40;1.23;;;29.50;22.40;;;;;;5015765;28;20555;-41
2022/08/09 09:55:55;;;;;;;5.03;2.03;;;29.40;22.40;;;;;;5014734;28;20425;-42
2022/08/09 09:58:21;;;;;;;3.10;1.50;;;29.30;21.70;;;;;;5015278;28;20483;-41
2022/08/09 10:00:50;;;;;;;2.47;1.80;;;29.20;22.40;;;;;;4998620;28;20524;-42
2022/08/09 10:03:16;;;;;;;2.30;1.40;;;29.30;22.50;;;;;;5016180;28;20921;-41
2022/08/09 10:06:00;;;;;;;2.30;1.50;;;29.20;22.80;;;;;;5015969;28;20405;-41
2022/08/09 10:08:26;;;;;;;6.23;2.10;;;29.20;22.90;;;;;;5016351;28;20798;-41
2022/08/09 10:10:53;;;;;;;12.10;2.30;;;29.30;22.90;;;;;;5015829;28;20906;-42
2022/08/09 10:13:19;;;;;;;3.83;2.00;;;29.10;23.00;;;;;;5014683;28;20249;-41
2022/08/09 10:15:49;;;;;;;2.80;1.60;;;29.20;22.90;;;;;;5015068;28;20823;-42
2022/08/09 10:18:16;;;;;;;3.23;1.70;;;29.20;22.50;;;;;;5014652;28;20447;-41
2022/08/09 10:20:42;;;;;;;3.23;1.60;;;29.20;22.10;;;;;;5016056;28;20461;-41
2022/08/09 10:23:20;;;;;;;2.70;1.40;;;29.20;22.80;;;;;;5014207;28;20452;-40
2022/08/09 10:25:46;;;;;;;3.37;1.80;;;29.20;23.10;;;;;;5012563;28;20420;-42
2022/08/09 10:28:12;;;;;;;3.23;1.77;;;29.30;23.50;;;;;;5013879;28;20786;-41
2022/08/09 10:30:40;;;;;;;2.67;1.60;;;29.30;23.00;;;;;;5014407;28;20408;-42
2022/08/09 10:33:07;;;;;;;2.87;1.60;;;29.30;22.80;;;;;;5013866;28;20408;-39
2022/08/09 10:35:33;;;;;;;3.77;2.13;;;29.40;22.10;;;;;;5014743;28;20417;-41
2022/08/09 10:38:02;;;;;;;4.50;2.20;;;29.40;21.90;;;;;;5014133;28;20421;-41
2022/08/09 10:40:28;;;;;;;2.70;1.70;;;29.50;22.20;;;;;;5013108;28;20445;-41
2022/08/09 10:42:54;;;;;;;2.47;1.60;;;29.80;21.40;;;;;;5012985;28;20455;-41
2022/08/09 10:45:21;;;;;;;3.70;1.90;;;30.10;21.10;;;;;;5012777;28;20437;-41
2022/08/09 10:48:03;;;;;;;3.23;2.03;;;30.30;20.00;;;;;;5014339;28;20433;-41
2022/08/09 10:54:09;;;;;;;3.50;1.63;;;30.40;19.40;;;;;;5012944;28;20989;-41
2022/08/09 10:56:37;;;;;;;3.10;1.57;;;30.40;20.30;;;;;;5013471;28;20401;-41
2022/08/09 10:59:21;;;;;;;2.40;1.40;;;30.30;20.90;;;;;;5013513;28;20413;-41
2022/08/09 11:01:48;;;;;;;3.67;1.50;;;30.40;21.10;;;;;;5013189;28;20453;-41
2022/08/09 11:04:20;;;;;;;3.53;2.70;;;30.40;21.30;;;;;;5013757;28;20405;-41
2022/08/09 11:07:05;;;;;;;3.27;2.00;;;30.40;20.40;;;;;;5013165;28;20513;-41
2022/08/09 11:09:37;;;;;;;3.00;1.47;;;30.30;21.00;;;;;;5012906;28;20408;-41
2022/08/09 11:12:13;;;;;;;2.40;1.50;;;30.40;21.90;;;;;;5013285;28;20401;-40
2022/08/09 11:14:55;;;;;;;2.20;1.50;;;30.30;21.50;;;;;;5012562;28;20401;-42
2022/08/09 11:17:21;;;;;;;2.50;1.57;;;30.30;21.40;;;;;;5012105;28;20540;-42
2022/08/09 11:20:10;;;;;;;2.90;2.07;;;30.30;20.30;;;;;;5013281;28;20540;-41
2022/08/09 11:22:48;;;;;;;5.03;1.70;;;30.40;20.90;;;;;;5013427;28;20155;-42
2022/08/09 11:25:32;;;;;;;3.03;2.20;;;30.60;21.20;;;;;;5012199;28;20462;-41
2022/08/09 11:27:58;;;;;;;2.40;1.60;;;30.90;20.00;;;;;;5012425;28;20417;-41
2022/08/09 11:30:26;;;;;;;3.00;2.17;;;31.10;20.50;;;;;;5012286;28;20468;-40
2022/08/09 11:33:07;;;;;;;3.23;1.60;;;31.30;20.40;;;;;;5012282;28;20500;-41
2022/08/09 11:35:33;;;;;;;3.93;2.10;;;31.60;20.50;;;;;;5012000;28;20409;-41
2022/08/09 11:38:17;;;;;;;3.23;2.00;;;31.80;19.80;;;;;;5015580;28;20429;-41
2022/08/09 11:40:43;;;;;;;2.63;1.60;;;32.10;19.60;;;;;;5018726;28;20194;-42
2022/08/09 11:43:36;;;;;;;2.40;1.47;;;32.20;19.70;;;;;;5016246;28;20802;-41
2022/08/09 11:46:03;;;;;;;2.80;1.87;;;32.30;19.50;;;;;;5016016;28;20387;-40
2022/08/09 11:51:04;;;;;;;3.20;1.73;;;32.20;18.80;;;;;;4994140;28;20472;-46
2022/08/09 11:53:40;;;;;;;2.77;1.70;;;32.20;19.40;;;;;;4996732;28;20414;-46
2022/08/09 11:56:15;;;;;;;3.63;1.87;;;32.30;19.70;;;;;;4996302;28;20886;-45
2022/08/09 11:58:44;;;;;;;3.70;1.70;;;32.40;19.70;;;;;;4996518;28;20427;-45
2022/08/09 12:01:15;;;;;;;2.60;1.67;;;32.40;19.40;;;;;;4996193;28;20468;-46
2022/08/09 12:03:42;;;;;;;2.30;1.27;;;32.20;19.20;;;;;;4996315;28;20901;-46
2022/08/09 12:06:25;;;;;;;3.70;1.40;;;32.00;19.40;;;;;;4996312;28;20404;-43
2022/08/09 12:08:54;;;;;;;3.00;1.70;;;31.90;18.70;;;;;;4996183;28;20440;-42
2022/08/09 12:11:24;;;;;;;2.43;1.53;;;31.70;18.50;;;;;;4996420;28;20420;-42
2022/08/09 12:13:56;;;;;;;2.60;1.40;;;31.60;18.50;;;;;;4996061;28;20946;-43
2022/08/09 12:16:30;;;;;;;2.87;1.80;;;31.40;19.20;;;;;;4995815;28;20406;-45
2022/08/09 12:18:57;;;;;;;2.10;1.30;;;31.30;18.90;;;;;;4995950;28;20529;-45
2022/08/09 12:21:27;;;;;;;3.60;2.03;;;31.20;19.60;;;;;;4995876;28;20458;-45
2022/08/09 12:23:54;;;;;;;3.13;1.87;;;31.10;19.70;;;;;;4995873;28;20912;-45
2022/08/09 12:26:20;;;;;;;3.53;1.77;;;31.00;20.00;;;;;;4995518;28;20406;-44
2022/08/09 12:28:48;;;;;;;3.33;2.07;;;30.90;19.70;;;;;;4995699;28;20433;-42
2022/08/09 12:31:25;;;;;;;4.10;1.80;;;30.80;19.60;;;;;;4995829;28;20416;-44
2022/08/09 12:33:53;;;;;;;4.27;1.77;;;30.80;19.80;;;;;;4995982;28;20398;-45
2022/08/09 12:36:19;;;;;;;4.00;2.40;;;30.80;19.80;;;;;;4995536;28;20414;-44
2022/08/09 12:38:45;;;;;;;2.70;2.03;;;30.60;20.00;;;;;;4995487;28;20418;-44
2022/08/09 12:41:12;;;;;;;9.87;1.80;;;30.70;20.00;;;;;;4995835;28;20794;-45
2022/08/09 12:43:39;;;;;;;4.80;2.40;;;30.60;19.90;;;;;;4995591;28;20810;-45
2022/08/09 12:46:06;;;;;;;4.10;1.87;;;30.60;20.00;;;;;;4995488;28;20406;-46
2022/08/09 12:48:32;;;;;;;2.63;1.83;;;30.60;20.10;;;;;;4994308;28;20899;-45
2022/08/09 12:51:00;;;;;;;2.40;1.93;;;30.50;20.40;;;;;;4995329;28;20430;-45
2022/08/09 12:53:31;;;;;;;4.13;1.93;;;30.60;20.30;;;;;;4995299;28;20557;-45
2022/08/09 12:56:15;;;;;;;4.17;2.10;;;30.60;20.10;;;;;;4995475;28;20406;-46
2022/08/09 12:59:01;;;;;;;2.80;2.03;;;30.60;20.00;;;;;;4995291;28;20466;-44
2022/08/09 13:01:26;;;;;;;2.90;1.90;;;30.60;20.00;;;;;;4995109;28;20504;-44